sensor_id;sensor_type;location;lat;lon;timestamp;temperature;humidity
2202;DHT22;1107;48.654;9.250;2023-07-02T00:02:09;17.10;99.90
2202;DHT22;1107;48.654;9.250;2023-07-02T00:04:36;17.10;99.90
2202;DHT22;1107;48.654;9.250;2023-07-02T00:07:03;17.10;99.90
2202;DHT22;1107;48.654;9.250;2023-07-02T00:09:30;17.00;99.90
2202;DHT22;1107;48.654;9.250;2023-07-02T00:11:57;17.00;99.90
2202;DHT22;1107;48.654;9.250;2023-07-02T00:14:26;17.00;99.90
2202;DHT22;1107;48.654;9.250;2023-07-02T00:16:52;16.90;99.90
2202;DHT22;1107;48.654;9.250;2023-07-02T00:19:19;16.90;99.90
2202;DHT22;1107;48.654;9.250;2023-07-02T00:21:46;16.90;99.90
2202;DHT22;1107;48.654;9.250;2023-07-02T00:24:13;16.90;99.90
2202;DHT22;1107;48.654;9.250;2023-07-02T00:26:42;16.90;99.90
2202;DHT22;1107;48.654;9.250;2023-07-02T00:29:09;16.80;99.90
2202;DHT22;1107;48.654;9.250;2023-07-02T00:31:37;16.80;99.90
2202;DHT22;1107;48.654;9.250;2023-07-02T00:34:04;16.80;99.90
2202;DHT22;1107;48.654;9.250;2023-07-02T00:36:31;16.70;99.90
2202;DHT22;1107;48.654;9.250;2023-07-02T00:38:58;16.70;99.90
2202;DHT22;1107;48.654;9.250;2023-07-02T00:41:25;16.70;99.90
2202;DHT22;1107;48.654;9.250;2023-07-02T00:43:52;16.70;99.90
2202;DHT22;1107;48.654;9.250;2023-07-02T00:46:21;16.70;99.90
2202;DHT22;1107;48.654;9.250;2023-07-02T00:48:52;16.70;99.90
2202;DHT22;1107;48.654;9.250;2023-07-02T00:51:21;16.70;99.90
2202;DHT22;1107;48.654;9.250;2023-07-02T00:53:49;16.70;99.90
2202;DHT22;1107;48.654;9.250;2023-07-02T00:56:17;16.80;99.90
2202;DHT22;1107;48.654;9.250;2023-07-02T00:58:46;16.80;99.90
2202;DHT22;1107;48.654;9.250;2023-07-02T01:01:15;16.90;99.90
2202;DHT22;1107;48.654;9.250;2023-07-02T01:03:55;16.90;99.90
2202;DHT22;1107;48.654;9.250;2023-07-02T01:06:23;16.90;99.90
2202;DHT22;1107;48.654;9.250;2023-07-02T01:08:57;17.00;99.90
2202;DHT22;1107;48.654;9.250;2023-07-02T01:11:27;17.00;99.90
2202;DHT22;1107;48.654;9.250;2023-07-02T01:13:58;17.00;99.90
2202;DHT22;1107;48.654;9.250;2023-07-02T01:16:26;17.00;99.90
2202;DHT22;1107;48.654;9.250;2023-07-02T01:18:58;17.00;99.90
2202;DHT22;1107;48.654;9.250;2023-07-02T01:21:31;16.90;99.90
2202;DHT22;1107;48.654;9.250;2023-07-02T01:23:59;16.90;99.90
2202;DHT22;1107;48.654;9.250;2023-07-02T01:26:29;16.90;99.90
2202;DHT22;1107;48.654;9.250;2023-07-02T01:28:56;16.90;99.90
2202;DHT22;1107;48.654;9.250;2023-07-02T01:31:23;16.90;99.90
2202;DHT22;1107;48.654;9.250;2023-07-02T01:33:51;16.80;99.90
2202;DHT22;1107;48.654;9.250;2023-07-02T01:36:18;16.80;99.90
2202;DHT22;1107;48.654;9.250;2023-07-02T01:38:46;16.70;99.90
2202;DHT22;1107;48.654;9.250;2023-07-02T01:41:13;16.70;99.90
2202;DHT22;1107;48.654;9.250;2023-07-02T01:43:40;16.70;99.90
2202;DHT22;1107;48.654;9.250;2023-07-02T01:46:07;16.70;99.90
2202;DHT22;1107;48.654;9.250;2023-07-02T01:48:34;16.70;99.90
2202;DHT22;1107;48.654;9.250;2023-07-02T01:51:01;16.70;99.90
2202;DHT22;1107;48.654;9.250;2023-07-02T01:53:28;16.70;99.90
2202;DHT22;1107;48.654;9.250;2023-07-02T01:55:56;16.60;99.90
2202;DHT22;1107;48.654;9.250;2023-07-02T01:58:24;16.60;99.90
2202;DHT22;1107;48.654;9.250;2023-07-02T02:00:51;16.50;99.90
2202;DHT22;1107;48.654;9.250;2023-07-02T02:03:18;16.50;99.90
2202;DHT22;1107;48.654;9.250;2023-07-02T02:05:45;16.50;99.90
2202;DHT22;1107;48.654;9.250;2023-07-02T02:08:12;16.60;99.90
2202;DHT22;1107;48.654;9.250;2023-07-02T02:10:39;16.50;99.90
2202;DHT22;1107;48.654;9.250;2023-07-02T02:13:07;16.40;99.90
2202;DHT22;1107;48.654;9.250;2023-07-02T02:15:34;16.40;99.90
2202;DHT22;1107;48.654;9.250;2023-07-02T02:18:02;16.30;99.90
2202;DHT22;1107;48.654;9.250;2023-07-02T02:20:29;16.30;99.90
2202;DHT22;1107;48.654;9.250;2023-07-02T02:22:56;16.30;99.90
2202;DHT22;1107;48.654;9.250;2023-07-02T02:25:23;16.40;99.90
2202;DHT22;1107;48.654;9.250;2023-07-02T02:27:50;16.40;99.90
2202;DHT22;1107;48.654;9.250;2023-07-02T02:30:18;16.50;99.90
2202;DHT22;1107;48.654;9.250;2023-07-02T02:32:45;16.50;99.90
2202;DHT22;1107;48.654;9.250;2023-07-02T02:35:12;16.50;99.90
2202;DHT22;1107;48.654;9.250;2023-07-02T02:37:40;16.50;99.90
2202;DHT22;1107;48.654;9.250;2023-07-02T02:40:07;16.50;99.90
2202;DHT22;1107;48.654;9.250;2023-07-02T02:42:35;16.50;99.90
2202;DHT22;1107;48.654;9.250;2023-07-02T02:45:03;16.50;99.90
2202;DHT22;1107;48.654;9.250;2023-07-02T02:47:31;16.60;99.90
2202;DHT22;1107;48.654;9.250;2023-07-02T02:49:59;16.60;99.90
2202;DHT22;1107;48.654;9.250;2023-07-02T02:52:26;16.60;99.90
2202;DHT22;1107;48.654;9.250;2023-07-02T02:54:53;16.60;99.90
2202;DHT22;1107;48.654;9.250;2023-07-02T02:57:20;16.70;99.90
2202;DHT22;1107;48.654;9.250;2023-07-02T02:59:47;16.70;99.90
2202;DHT22;1107;48.654;9.250;2023-07-02T03:02:13;16.70;99.90
2202;DHT22;1107;48.654;9.250;2023-07-02T03:04:42;16.70;99.90
2202;DHT22;1107;48.654;9.250;2023-07-02T03:07:09;16.70;99.90
2202;DHT22;1107;48.654;9.250;2023-07-02T03:09:36;16.70;99.90
2202;DHT22;1107;48.654;9.250;2023-07-02T03:12:04;16.70;99.90
2202;DHT22;1107;48.654;9.250;2023-07-02T03:14:31;16.70;99.90
2202;DHT22;1107;48.654;9.250;2023-07-02T03:16:58;16.70;99.90
2202;DHT22;1107;48.654;9.250;2023-07-02T03:19:25;16.60;99.90
2202;DHT22;1107;48.654;9.250;2023-07-02T03:21:53;16.60;99.90
2202;DHT22;1107;48.654;9.250;2023-07-02T03:24:20;16.60;99.90
2202;DHT22;1107;48.654;9.250;2023-07-02T03:26:47;16.60;99.90
2202;DHT22;1107;48.654;9.250;2023-07-02T03:29:15;16.50;99.90
2202;DHT22;1107;48.654;9.250;2023-07-02T03:31:45;16.40;99.90
2202;DHT22;1107;48.654;9.250;2023-07-02T03:34:12;16.30;99.90
2202;DHT22;1107;48.654;9.250;2023-07-02T03:36:39;16.20;99.90
2202;DHT22;1107;48.654;9.250;2023-07-02T03:39:08;16.10;99.90
2202;DHT22;1107;48.654;9.250;2023-07-02T03:41:35;16.00;99.90
2202;DHT22;1107;48.654;9.250;2023-07-02T03:44:02;16.00;99.90
2202;DHT22;1107;48.654;9.250;2023-07-02T03:46:29;15.90;99.90
2202;DHT22;1107;48.654;9.250;2023-07-02T03:48:56;15.80;99.90
2202;DHT22;1107;48.654;9.250;2023-07-02T03:51:23;15.80;99.90
2202;DHT22;1107;48.654;9.250;2023-07-02T03:53:50;15.70;99.90
2202;DHT22;1107;48.654;9.250;2023-07-02T03:56:18;15.60;99.90
2202;DHT22;1107;48.654;9.250;2023-07-02T03:58:45;15.60;99.90
2202;DHT22;1107;48.654;9.250;2023-07-02T04:01:12;15.60;99.90
2202;DHT22;1107;48.654;9.250;2023-07-02T04:03:41;15.50;99.90
2202;DHT22;1107;48.654;9.250;2023-07-02T04:06:08;15.50;99.90
2202;DHT22;1107;48.654;9.250;2023-07-02T04:08:35;15.50;99.90
2202;DHT22;1107;48.654;9.250;2023-07-02T04:11:02;15.50;99.90
2202;DHT22;1107;48.654;9.250;2023-07-02T04:13:30;15.40;99.90
2202;DHT22;1107;48.654;9.250;2023-07-02T04:15:57;15.40;99.90
2202;DHT22;1107;48.654;9.250;2023-07-02T04:18:24;15.40;99.90
2202;DHT22;1107;48.654;9.250;2023-07-02T04:20:51;15.40;99.90
2202;DHT22;1107;48.654;9.250;2023-07-02T04:23:18;15.40;99.90
2202;DHT22;1107;48.654;9.250;2023-07-02T04:25:45;15.40;99.90
2202;DHT22;1107;48.654;9.250;2023-07-02T04:28:12;15.40;99.90
2202;DHT22;1107;48.654;9.250;2023-07-02T04:30:41;15.30;99.90
2202;DHT22;1107;48.654;9.250;2023-07-02T04:33:08;15.30;99.90
2202;DHT22;1107;48.654;9.250;2023-07-02T04:35:39;15.30;99.90
2202;DHT22;1107;48.654;9.250;2023-07-02T04:38:08;15.40;99.90
2202;DHT22;1107;48.654;9.250;2023-07-02T04:40:35;15.40;99.90
2202;DHT22;1107;48.654;9.250;2023-07-02T04:43:02;15.50;99.90
2202;DHT22;1107;48.654;9.250;2023-07-02T04:45:29;15.50;99.90
2202;DHT22;1107;48.654;9.250;2023-07-02T04:47:59;15.60;99.90
2202;DHT22;1107;48.654;9.250;2023-07-02T04:50:26;15.70;99.90
2202;DHT22;1107;48.654;9.250;2023-07-02T04:52:53;15.80;99.90
2202;DHT22;1107;48.654;9.250;2023-07-02T04:55:21;15.90;99.90
2202;DHT22;1107;48.654;9.250;2023-07-02T04:57:48;15.90;99.90
2202;DHT22;1107;48.654;9.250;2023-07-02T05:00:15;16.00;99.90
2202;DHT22;1107;48.654;9.250;2023-07-02T05:02:42;16.10;99.90
2202;DHT22;1107;48.654;9.250;2023-07-02T05:05:11;16.20;99.90
2202;DHT22;1107;48.654;9.250;2023-07-02T05:07:40;16.20;99.90
2202;DHT22;1107;48.654;9.250;2023-07-02T05:10:07;16.30;99.90
2202;DHT22;1107;48.654;9.250;2023-07-02T05:12:34;16.20;99.90
2202;DHT22;1107;48.654;9.250;2023-07-02T05:15:01;16.20;99.90
2202;DHT22;1107;48.654;9.250;2023-07-02T05:17:28;16.20;99.90
2202;DHT22;1107;48.654;9.250;2023-07-02T05:19:56;16.20;99.90
2202;DHT22;1107;48.654;9.250;2023-07-02T05:22:24;16.30;99.90
2202;DHT22;1107;48.654;9.250;2023-07-02T05:24:51;16.50;99.90
2202;DHT22;1107;48.654;9.250;2023-07-02T05:27:18;16.60;99.90
2202;DHT22;1107;48.654;9.250;2023-07-02T05:29:45;16.60;99.90
2202;DHT22;1107;48.654;9.250;2023-07-02T05:32:12;16.50;99.90
2202;DHT22;1107;48.654;9.250;2023-07-02T05:34:39;16.40;99.90
2202;DHT22;1107;48.654;9.250;2023-07-02T05:37:06;16.30;99.90
2202;DHT22;1107;48.654;9.250;2023-07-02T05:39:35;16.20;99.90
2202;DHT22;1107;48.654;9.250;2023-07-02T05:42:02;16.20;99.90
2202;DHT22;1107;48.654;9.250;2023-07-02T05:44:29;16.40;99.90
2202;DHT22;1107;48.654;9.250;2023-07-02T05:46:57;16.60;99.90
2202;DHT22;1107;48.654;9.250;2023-07-02T05:49:24;16.80;99.90
2202;DHT22;1107;48.654;9.250;2023-07-02T05:51:52;17.10;99.90
2202;DHT22;1107;48.654;9.250;2023-07-02T05:54:18;17.10;99.90
2202;DHT22;1107;48.654;9.250;2023-07-02T05:56:47;17.00;99.90
2202;DHT22;1107;48.654;9.250;2023-07-02T05:59:14;16.90;99.90
2202;DHT22;1107;48.654;9.250;2023-07-02T06:01:43;17.00;99.90
2202;DHT22;1107;48.654;9.250;2023-07-02T06:04:10;17.00;99.90
2202;DHT22;1107;48.654;9.250;2023-07-02T06:06:37;17.50;99.90
2202;DHT22;1107;48.654;9.250;2023-07-02T06:09:04;18.00;99.90
2202;DHT22;1107;48.654;9.250;2023-07-02T06:11:31;18.60;99.90
2202;DHT22;1107;48.654;9.250;2023-07-02T06:13:59;18.80;99.90
2202;DHT22;1107;48.654;9.250;2023-07-02T06:16:26;18.90;99.90
2202;DHT22;1107;48.654;9.250;2023-07-02T06:18:53;18.90;99.90
2202;DHT22;1107;48.654;9.250;2023-07-02T06:21:20;18.90;99.90
2202;DHT22;1107;48.654;9.250;2023-07-02T06:23:47;19.10;99.90
2202;DHT22;1107;48.654;9.250;2023-07-02T06:26:14;19.10;99.90
2202;DHT22;1107;48.654;9.250;2023-07-02T06:28:41;19.20;99.90
2202;DHT22;1107;48.654;9.250;2023-07-02T06:31:10;19.30;99.90
2202;DHT22;1107;48.654;9.250;2023-07-02T06:33:39;19.60;99.90
2202;DHT22;1107;48.654;9.250;2023-07-02T06:36:06;19.90;99.90
2202;DHT22;1107;48.654;9.250;2023-07-02T06:38:33;20.10;99.90
2202;DHT22;1107;48.654;9.250;2023-07-02T06:41:00;20.30;99.90
2202;DHT22;1107;48.654;9.250;2023-07-02T06:43:27;20.40;99.90
2202;DHT22;1107;48.654;9.250;2023-07-02T06:45:53;20.20;99.90
2202;DHT22;1107;48.654;9.250;2023-07-02T06:48:22;20.10;99.90
2202;DHT22;1107;48.654;9.250;2023-07-02T06:50:49;20.10;99.90
2202;DHT22;1107;48.654;9.250;2023-07-02T06:53:15;20.20;99.90
2202;DHT22;1107;48.654;9.250;2023-07-02T06:55:42;20.00;99.90
2202;DHT22;1107;48.654;9.250;2023-07-02T06:58:09;20.70;99.90
2202;DHT22;1107;48.654;9.250;2023-07-02T07:00:36;21.30;99.90
2202;DHT22;1107;48.654;9.250;2023-07-02T07:03:03;21.20;99.90
2202;DHT22;1107;48.654;9.250;2023-07-02T07:05:32;21.30;99.90
2202;DHT22;1107;48.654;9.250;2023-07-02T07:07:59;21.10;99.90
2202;DHT22;1107;48.654;9.250;2023-07-02T07:10:27;20.80;99.90
2202;DHT22;1107;48.654;9.250;2023-07-02T07:12:54;20.50;99.90
2202;DHT22;1107;48.654;9.250;2023-07-02T07:15:21;20.10;99.90
2202;DHT22;1107;48.654;9.250;2023-07-02T07:17:48;20.10;99.90
2202;DHT22;1107;48.654;9.250;2023-07-02T07:20:15;20.00;99.90
2202;DHT22;1107;48.654;9.250;2023-07-02T07:22:43;20.10;99.90
2202;DHT22;1107;48.654;9.250;2023-07-02T07:25:10;20.00;99.90
2202;DHT22;1107;48.654;9.250;2023-07-02T07:27:37;20.00;99.90
2202;DHT22;1107;48.654;9.250;2023-07-02T07:30:05;20.10;99.90
2202;DHT22;1107;48.654;9.250;2023-07-02T07:32:32;20.00;99.90
2202;DHT22;1107;48.654;9.250;2023-07-02T07:34:59;19.90;99.90
2202;DHT22;1107;48.654;9.250;2023-07-02T07:37:26;19.80;99.90
2202;DHT22;1107;48.654;9.250;2023-07-02T07:39:54;19.80;99.90
2202;DHT22;1107;48.654;9.250;2023-07-02T07:42:22;20.00;99.90
2202;DHT22;1107;48.654;9.250;2023-07-02T07:44:48;20.10;99.90
2202;DHT22;1107;48.654;9.250;2023-07-02T07:47:15;20.30;99.90
2202;DHT22;1107;48.654;9.250;2023-07-02T07:49:42;20.50;99.90
2202;DHT22;1107;48.654;9.250;2023-07-02T07:52:09;20.60;99.90
2202;DHT22;1107;48.654;9.250;2023-07-02T07:54:36;20.50;99.90
2202;DHT22;1107;48.654;9.250;2023-07-02T07:57:05;20.30;99.90
2202;DHT22;1107;48.654;9.250;2023-07-02T07:59:32;20.30;99.90
2202;DHT22;1107;48.654;9.250;2023-07-02T08:01:59;20.60;99.90
2202;DHT22;1107;48.654;9.250;2023-07-02T08:04:26;21.10;99.90
2202;DHT22;1107;48.654;9.250;2023-07-02T08:06:53;21.30;99.90
2202;DHT22;1107;48.654;9.250;2023-07-02T08:09:24;21.20;99.90
2202;DHT22;1107;48.654;9.250;2023-07-02T08:11:51;21.30;99.90
2202;DHT22;1107;48.654;9.250;2023-07-02T08:14:19;21.30;1.00
2202;DHT22;1107;48.654;9.250;2023-07-02T08:16:46;21.20;1.00
2202;DHT22;1107;48.654;9.250;2023-07-02T08:19:13;21.20;1.00
2202;DHT22;1107;48.654;9.250;2023-07-02T08:21:40;20.60;1.00
2202;DHT22;1107;48.654;9.250;2023-07-02T08:24:07;20.50;1.00
2202;DHT22;1107;48.654;9.250;2023-07-02T08:26:34;21.40;1.00
2202;DHT22;1107;48.654;9.250;2023-07-02T08:29:01;22.40;1.00
2202;DHT22;1107;48.654;9.250;2023-07-02T08:31:29;22.50;1.00
2202;DHT22;1107;48.654;9.250;2023-07-02T08:33:56;23.00;1.00
2202;DHT22;1107;48.654;9.250;2023-07-02T08:36:23;23.30;1.00
2202;DHT22;1107;48.654;9.250;2023-07-02T08:38:50;22.80;1.00
2202;DHT22;1107;48.654;9.250;2023-07-02T08:41:17;23.00;1.00
2202;DHT22;1107;48.654;9.250;2023-07-02T08:43:44;23.40;99.90
2202;DHT22;1107;48.654;9.250;2023-07-02T08:46:11;24.30;99.90
2202;DHT22;1107;48.654;9.250;2023-07-02T08:48:40;24.30;99.90
2202;DHT22;1107;48.654;9.250;2023-07-02T08:51:07;23.80;99.90
2202;DHT22;1107;48.654;9.250;2023-07-02T08:53:34;23.30;99.90
2202;DHT22;1107;48.654;9.250;2023-07-02T08:56:01;23.80;99.90
2202;DHT22;1107;48.654;9.250;2023-07-02T08:58:29;24.30;99.90
2202;DHT22;1107;48.654;9.250;2023-07-02T09:01:09;24.90;99.90
2202;DHT22;1107;48.654;9.250;2023-07-02T09:03:39;25.50;99.90
2202;DHT22;1107;48.654;9.250;2023-07-02T09:06:07;26.30;99.90
2202;DHT22;1107;48.654;9.250;2023-07-02T09:08:35;27.30;99.90
2202;DHT22;1107;48.654;9.250;2023-07-02T09:11:08;27.00;99.90
2202;DHT22;1107;48.654;9.250;2023-07-02T09:13:43;27.80;99.90
2202;DHT22;1107;48.654;9.250;2023-07-02T09:16:21;28.00;99.90
2202;DHT22;1107;48.654;9.250;2023-07-02T09:18:57;28.40;99.90
2202;DHT22;1107;48.654;9.250;2023-07-02T09:21:26;28.40;99.90
2202;DHT22;1107;48.654;9.250;2023-07-02T09:23:53;27.50;99.90
2202;DHT22;1107;48.654;9.250;2023-07-02T09:26:20;25.50;99.90
2202;DHT22;1107;48.654;9.250;2023-07-02T09:28:47;25.90;99.90
2202;DHT22;1107;48.654;9.250;2023-07-02T09:31:14;26.90;99.90
2202;DHT22;1107;48.654;9.250;2023-07-02T09:33:42;27.70;99.90
2202;DHT22;1107;48.654;9.250;2023-07-02T09:36:11;27.40;99.90
2202;DHT22;1107;48.654;9.250;2023-07-02T09:38:39;27.70;99.90
2202;DHT22;1107;48.654;9.250;2023-07-02T09:41:07;28.40;99.90
2202;DHT22;1107;48.654;9.250;2023-07-02T09:43:35;28.00;99.90
2202;DHT22;1107;48.654;9.250;2023-07-02T09:46:03;28.20;99.90
2202;DHT22;1107;48.654;9.250;2023-07-02T09:48:32;27.80;99.90
2202;DHT22;1107;48.654;9.250;2023-07-02T09:51:01;27.70;99.90
2202;DHT22;1107;48.654;9.250;2023-07-02T09:53:29;27.50;99.90
2202;DHT22;1107;48.654;9.250;2023-07-02T09:55:57;27.10;99.90
2202;DHT22;1107;48.654;9.250;2023-07-02T09:58:24;26.90;99.90
2202;DHT22;1107;48.654;9.250;2023-07-02T10:00:50;26.20;99.90
2202;DHT22;1107;48.654;9.250;2023-07-02T10:03:28;26.00;99.90
2202;DHT22;1107;48.654;9.250;2023-07-02T10:06:03;26.60;99.90
2202;DHT22;1107;48.654;9.250;2023-07-02T10:08:31;26.70;99.90
2202;DHT22;1107;48.654;9.250;2023-07-02T10:11:07;26.70;99.90
2202;DHT22;1107;48.654;9.250;2023-07-02T10:13:35;26.70;99.90
2202;DHT22;1107;48.654;9.250;2023-07-02T10:16:02;26.30;99.90
2202;DHT22;1107;48.654;9.250;2023-07-02T10:18:29;26.70;99.90
2202;DHT22;1107;48.654;9.250;2023-07-02T10:20:56;26.80;99.90
2202;DHT22;1107;48.654;9.250;2023-07-02T10:23:34;26.20;99.90
2202;DHT22;1107;48.654;9.250;2023-07-02T10:26:13;25.90;98.00
2202;DHT22;1107;48.654;9.250;2023-07-02T10:28:40;26.10;98.50
2202;DHT22;1107;48.654;9.250;2023-07-02T10:31:18;25.90;98.20
2202;DHT22;1107;48.654;9.250;2023-07-02T10:33:46;25.90;97.80
2202;DHT22;1107;48.654;9.250;2023-07-02T10:36:18;25.70;96.00
2202;DHT22;1107;48.654;9.250;2023-07-02T10:38:47;25.20;93.20
2202;DHT22;1107;48.654;9.250;2023-07-02T10:41:24;25.50;92.60
2202;DHT22;1107;48.654;9.250;2023-07-02T10:43:51;26.10;95.10
2202;DHT22;1107;48.654;9.250;2023-07-02T10:46:19;26.10;93.90
2202;DHT22;1107;48.654;9.250;2023-07-02T10:48:56;26.40;91.70
2202;DHT22;1107;48.654;9.250;2023-07-02T10:51:23;26.60;90.40
2202;DHT22;1107;48.654;9.250;2023-07-02T10:54:00;26.70;89.00
2202;DHT22;1107;48.654;9.250;2023-07-02T10:56:28;26.90;83.50
2202;DHT22;1107;48.654;9.250;2023-07-02T10:58:55;27.00;84.70
2202;DHT22;1107;48.654;9.250;2023-07-02T11:01:26;26.90;81.60
2202;DHT22;1107;48.654;9.250;2023-07-02T11:03:56;26.80;81.80
2202;DHT22;1107;48.654;9.250;2023-07-02T11:06:24;26.70;78.30
2202;DHT22;1107;48.654;9.250;2023-07-02T11:08:51;26.20;72.30
2202;DHT22;1107;48.654;9.250;2023-07-02T11:11:22;26.50;74.00
2202;DHT22;1107;48.654;9.250;2023-07-02T11:13:50;26.70;77.30
2202;DHT22;1107;48.654;9.250;2023-07-02T11:16:22;26.70;73.20
2202;DHT22;1107;48.654;9.250;2023-07-02T11:18:52;26.50;69.00
2202;DHT22;1107;48.654;9.250;2023-07-02T11:21:19;25.80;58.50
2202;DHT22;1107;48.654;9.250;2023-07-02T11:23:46;26.40;63.20
2202;DHT22;1107;48.654;9.250;2023-07-02T11:26:13;27.10;69.60
2202;DHT22;1107;48.654;9.250;2023-07-02T11:28:50;27.10;66.70
2202;DHT22;1107;48.654;9.250;2023-07-02T11:31:26;27.20;64.10
2202;DHT22;1107;48.654;9.250;2023-07-02T11:33:53;27.20;59.30
2202;DHT22;1107;48.654;9.250;2023-07-02T11:36:21;26.70;54.90
2202;DHT22;1107;48.654;9.250;2023-07-02T11:38:49;26.40;51.60
2202;DHT22;1107;48.654;9.250;2023-07-02T11:41:17;26.80;54.30
2202;DHT22;1107;48.654;9.250;2023-07-02T11:43:44;26.40;54.30
2202;DHT22;1107;48.654;9.250;2023-07-02T11:46:13;26.90;59.70
2202;DHT22;1107;48.654;9.250;2023-07-02T11:48:40;26.80;57.90
2202;DHT22;1107;48.654;9.250;2023-07-02T11:51:07;26.80;55.70
2202;DHT22;1107;48.654;9.250;2023-07-02T11:53:36;27.10;55.10
2202;DHT22;1107;48.654;9.250;2023-07-02T11:56:03;27.20;51.80
2202;DHT22;1107;48.654;9.250;2023-07-02T11:58:30;27.70;55.90
2202;DHT22;1107;48.654;9.250;2023-07-02T12:00:57;27.90;52.80
2202;DHT22;1107;48.654;9.250;2023-07-02T12:03:25;26.80;44.90
2202;DHT22;1107;48.654;9.250;2023-07-02T12:05:52;27.80;49.50
2202;DHT22;1107;48.654;9.250;2023-07-02T12:08:19;28.10;49.20
2202;DHT22;1107;48.654;9.250;2023-07-02T12:10:46;27.30;42.80
2202;DHT22;1107;48.654;9.250;2023-07-02T12:13:13;27.60;45.30
2202;DHT22;1107;48.654;9.250;2023-07-02T12:15:40;28.00;48.10
2202;DHT22;1107;48.654;9.250;2023-07-02T12:18:07;28.30;48.20
2202;DHT22;1107;48.654;9.250;2023-07-02T12:20:36;28.30;45.00
2202;DHT22;1107;48.654;9.250;2023-07-02T12:23:03;28.00;42.50
2202;DHT22;1107;48.654;9.250;2023-07-02T12:25:31;28.50;44.60
2202;DHT22;1107;48.654;9.250;2023-07-02T12:27:58;28.70;45.30
2202;DHT22;1107;48.654;9.250;2023-07-02T12:30:25;28.80;44.90
2202;DHT22;1107;48.654;9.250;2023-07-02T12:32:52;28.70;44.40
2202;DHT22;1107;48.654;9.250;2023-07-02T12:35:19;28.60;42.30
2202;DHT22;1107;48.654;9.250;2023-07-02T12:37:48;28.80;40.90
2202;DHT22;1107;48.654;9.250;2023-07-02T12:40:15;29.00;39.90
2202;DHT22;1107;48.654;9.250;2023-07-02T12:42:42;29.40;42.40
2202;DHT22;1107;48.654;9.250;2023-07-02T12:45:11;28.60;34.30
2202;DHT22;1107;48.654;9.250;2023-07-02T12:47:38;28.80;34.00
2202;DHT22;1107;48.654;9.250;2023-07-02T12:50:05;28.80;34.50
2202;DHT22;1107;48.654;9.250;2023-07-02T12:52:33;28.80;31.60
2202;DHT22;1107;48.654;9.250;2023-07-02T12:55:01;28.60;30.20
2202;DHT22;1107;48.654;9.250;2023-07-02T12:57:28;29.00;31.60
2202;DHT22;1107;48.654;9.250;2023-07-02T12:59:56;28.10;26.80
2202;DHT22;1107;48.654;9.250;2023-07-02T13:02:23;28.40;27.30
2202;DHT22;1107;48.654;9.250;2023-07-02T13:04:51;28.40;26.10
2202;DHT22;1107;48.654;9.250;2023-07-02T13:07:18;28.70;27.00
2202;DHT22;1107;48.654;9.250;2023-07-02T13:09:45;28.60;23.40
2202;DHT22;1107;48.654;9.250;2023-07-02T13:12:13;28.60;22.20
2202;DHT22;1107;48.654;9.250;2023-07-02T13:14:40;28.10;21.60
2202;DHT22;1107;48.654;9.250;2023-07-02T13:17:07;28.20;19.90
2202;DHT22;1107;48.654;9.250;2023-07-02T13:19:34;28.40;20.80
2202;DHT22;1107;48.654;9.250;2023-07-02T13:22:01;28.70;21.50
2202;DHT22;1107;48.654;9.250;2023-07-02T13:24:33;28.80;20.70
2202;DHT22;1107;48.654;9.250;2023-07-02T13:27:02;28.80;18.40
2202;DHT22;1107;48.654;9.250;2023-07-02T13:29:33;28.90;18.90
2202;DHT22;1107;48.654;9.250;2023-07-02T13:32:01;29.00;20.70
2202;DHT22;1107;48.654;9.250;2023-07-02T13:34:28;29.10;20.90
2202;DHT22;1107;48.654;9.250;2023-07-02T13:36:55;29.10;21.00
2202;DHT22;1107;48.654;9.250;2023-07-02T13:39:22;28.40;15.10
2202;DHT22;1107;48.654;9.250;2023-07-02T13:41:50;27.90;12.10
2202;DHT22;1107;48.654;9.250;2023-07-02T13:44:17;27.90;12.20
2202;DHT22;1107;48.654;9.250;2023-07-02T13:46:45;28.20;14.10
2202;DHT22;1107;48.654;9.250;2023-07-02T13:49:13;28.60;16.40
2202;DHT22;1107;48.654;9.250;2023-07-02T13:51:40;28.50;16.80
2202;DHT22;1107;48.654;9.250;2023-07-02T13:54:11;27.90;12.90
2202;DHT22;1107;48.654;9.250;2023-07-02T13:56:40;28.10;14.70
2202;DHT22;1107;48.654;9.250;2023-07-02T13:59:08;28.00;12.70
2202;DHT22;1107;48.654;9.250;2023-07-02T14:01:35;27.80;10.90
2202;DHT22;1107;48.654;9.250;2023-07-02T14:04:03;28.00;12.50
2202;DHT22;1107;48.654;9.250;2023-07-02T14:06:30;28.00;11.60
2202;DHT22;1107;48.654;9.250;2023-07-02T14:08:57;27.70;9.40
2202;DHT22;1107;48.654;9.250;2023-07-02T14:11:25;27.80;10.20
2202;DHT22;1107;48.654;9.250;2023-07-02T14:13:53;28.00;11.30
2202;DHT22;1107;48.654;9.250;2023-07-02T14:16:22;28.20;12.10
2202;DHT22;1107;48.654;9.250;2023-07-02T14:18:49;28.10;11.20
2202;DHT22;1107;48.654;9.250;2023-07-02T14:21:17;27.70;8.20
2202;DHT22;1107;48.654;9.250;2023-07-02T14:23:44;27.90;9.80
2202;DHT22;1107;48.654;9.250;2023-07-02T14:26:11;28.10;11.00
2202;DHT22;1107;48.654;9.250;2023-07-02T14:28:38;27.80;9.30
2202;DHT22;1107;48.654;9.250;2023-07-02T14:31:06;28.10;9.90
2202;DHT22;1107;48.654;9.250;2023-07-02T14:33:36;28.20;9.80
2202;DHT22;1107;48.654;9.250;2023-07-02T14:36:03;27.80;8.80
2202;DHT22;1107;48.654;9.250;2023-07-02T14:38:31;28.00;9.80
2202;DHT22;1107;48.654;9.250;2023-07-02T14:40:59;27.90;9.50
2202;DHT22;1107;48.654;9.250;2023-07-02T14:43:28;28.20;11.50
2202;DHT22;1107;48.654;9.250;2023-07-02T14:45:58;28.20;11.70
2202;DHT22;1107;48.654;9.250;2023-07-02T14:48:26;28.00;10.20
2202;DHT22;1107;48.654;9.250;2023-07-02T14:50:55;27.70;9.50
2202;DHT22;1107;48.654;9.250;2023-07-02T14:53:24;27.30;7.60
2202;DHT22;1107;48.654;9.250;2023-07-02T14:55:54;27.10;6.40
2202;DHT22;1107;48.654;9.250;2023-07-02T14:58:21;27.20;6.70
2202;DHT22;1107;48.654;9.250;2023-07-02T15:00:50;27.00;5.90
2202;DHT22;1107;48.654;9.250;2023-07-02T15:03:17;26.50;4.20
2202;DHT22;1107;48.654;9.250;2023-07-02T15:05:46;26.50;3.80
2202;DHT22;1107;48.654;9.250;2023-07-02T15:08:16;26.00;2.60
2202;DHT22;1107;48.654;9.250;2023-07-02T15:10:46;25.80;2.60
2202;DHT22;1107;48.654;9.250;2023-07-02T15:13:14;26.30;5.80
2202;DHT22;1107;48.654;9.250;2023-07-02T15:15:43;26.60;8.20
2202;DHT22;1107;48.654;9.250;2023-07-02T15:18:11;26.40;7.20
2202;DHT22;1107;48.654;9.250;2023-07-02T15:20:38;25.90;6.30
2202;DHT22;1107;48.654;9.250;2023-07-02T15:23:05;25.60;5.70
2202;DHT22;1107;48.654;9.250;2023-07-02T15:25:33;25.80;7.60
2202;DHT22;1107;48.654;9.250;2023-07-02T15:28:00;25.90;9.60
2202;DHT22;1107;48.654;9.250;2023-07-02T15:30:27;25.90;8.90
2202;DHT22;1107;48.654;9.250;2023-07-02T15:32:55;25.90;9.60
2202;DHT22;1107;48.654;9.250;2023-07-02T15:35:22;26.00;11.10
2202;DHT22;1107;48.654;9.250;2023-07-02T15:37:49;26.00;11.00
2202;DHT22;1107;48.654;9.250;2023-07-02T15:40:16;26.00;10.80
2202;DHT22;1107;48.654;9.250;2023-07-02T15:42:44;26.10;11.50
2202;DHT22;1107;48.654;9.250;2023-07-02T15:45:11;26.20;11.00
2202;DHT22;1107;48.654;9.250;2023-07-02T15:47:38;26.10;11.60
2202;DHT22;1107;48.654;9.250;2023-07-02T15:50:06;26.00;10.90
2202;DHT22;1107;48.654;9.250;2023-07-02T15:52:33;26.10;12.50
2202;DHT22;1107;48.654;9.250;2023-07-02T15:55:00;26.20;11.90
2202;DHT22;1107;48.654;9.250;2023-07-02T15:57:27;25.90;9.50
2202;DHT22;1107;48.654;9.250;2023-07-02T15:59:55;25.70;9.50
2202;DHT22;1107;48.654;9.250;2023-07-02T16:02:22;25.30;7.20
2202;DHT22;1107;48.654;9.250;2023-07-02T16:04:49;25.00;6.90
2202;DHT22;1107;48.654;9.250;2023-07-02T16:07:16;24.90;7.70
2202;DHT22;1107;48.654;9.250;2023-07-02T16:09:43;25.00;8.20